• Join FlightAware (Why Join?)
  • Login
  • US Flag 
10:26AM EDT


 

Airport Tracker/Info


-or-


 

Live Flight TrackerFlight Track Log ✈ CSN6869 ✈ 14-Jan-2014 ✈ ZWWW / URC - ZWAK / AKU

Flight Track Log - Related Links

Times and Time Zones

All times are in EST time to prevent confusion due to time zone crossing. See the CSN6869 flight status page for this flight to view local times or setup timezone preferences in your user account.

Time Position Orientation Groundspeed Altitude Reporting Facility
EST Latitude Longitude Course Direction KTS MPH feet Rate Location/Type
07:49AM 42.7965 84.2320 246° West  Level Estimated
07:50AM 42.7520 84.1097 244° Southwest  Level Estimated
07:51AM 42.7074 83.9875 244° Southwest  Level Estimated
07:52AM 42.6626 83.8656 244° Southwest  Level Estimated
07:53AM 42.6177 83.7438 243° Southwest  Level Estimated
07:54AM 42.5726 83.6221 243° Southwest  Level Estimated
07:55AM 42.5275 83.5007 243° Southwest  Level Estimated
07:56AM 42.4822 83.3794 243° Southwest  Level Estimated
07:57AM 42.4368 83.2583 243° Southwest  Level Estimated
07:58AM 42.3912 83.1374 243° Southwest  Level Estimated
07:59AM 42.3455 83.0166 243° Southwest  Level Estimated
08:00AM 42.2997 82.8961 243° Southwest  Level Estimated
08:01AM 42.2538 82.7757 243° Southwest  Level Estimated
08:02AM 42.2078 82.6554 243° Southwest  Level Estimated
08:03AM 42.1616 82.5354 243° Southwest  Level Estimated
08:04AM 42.1153 82.4155 243° Southwest  Level Estimated
08:05AM 42.0689 82.2959 242° Southwest  Level Estimated
08:06AM 42.0223 82.1763 242° Southwest  Level Estimated
08:07AM 41.9756 82.0570 242° Southwest  Level Estimated
08:08AM 41.9288 81.9378 242° Southwest  Level Estimated
08:09AM 41.8819 81.8188 242° Southwest  Level Estimated
08:10AM 41.8349 81.7000 242° Southwest  Level Estimated
08:11AM 41.7877 81.5814 242° Southwest  Level Estimated
08:12AM 41.7404 81.4629 242° Southwest  Level Estimated
08:13AM 41.6930 81.3446 242° Southwest  Level Estimated
08:14AM 41.6455 81.2265 242° Southwest  Level Estimated
08:15AM 41.5978 81.1085 242° Southwest  Level Estimated
08:16AM 41.5500 80.9908 242° Southwest  Level Estimated
08:17AM 41.5021 80.8732 241° Southwest  Level Estimated
08:18AM 41.4541 80.7557 241° Southwest  Level Estimated
08:19AM 41.4060 80.6385 241° Southwest  Level Estimated
08:20AM 41.3577 80.5214 241° Southwest  Level Estimated
08:21AM 41.3094 80.4045 241° Southwest  Level Estimated
08:22AM 41.2625 80.2917 241° Southwest  Level Estimated
08:23AM 41.2625 80.2917 270° West  Level Estimated
08:24AM 41.2625 80.2917 270° West  Level Estimated
08:25AM 41.2625 80.2917 270° West  Level Estimated
08:26AM 41.2625 80.2917 270° West  Level Estimated
08:27AM 41.2625 80.2917 270° West  Level Estimated
08:28AM 41.2625 80.2917 270° West  Level Estimated
08:29AM 41.2625 80.2917 270° West  Level Estimated
08:30AM 41.2625 80.2917 270° West  Level Estimated
08:31AM 41.2625 80.2917 270° West  Level Estimated